Time;durP1;ratioP1;P1;durP2;ratioP2;P2;SDS_P1;SDS_P2;PMS_P1;PMS_P2;Temp;Humidity;BMP_temperature;BMP_pressure;BME280_temperature;BME280_humidity;BME280_pressure;Samples;Min_cycle;Max_cycle;Signal;HPM_P1;HPM_P2
2022/08/22 00:01:29;;;;;;;8.88;6.50;;;;;;;20.70;69.01;94798.91;5030976;28;20128;-86
2022/08/22 00:04:22;;;;;;;9.98;7.45;;;;;;;20.75;68.76;94790.75;5029632;28;20562;-87
2022/08/22 00:07:09;;;;;;;9.32;6.97;;;;;;;20.83;68.64;94795.75;5027563;28;20506;-87
2022/08/22 00:10:10;;;;;;;9.88;7.43;;;;;;;20.79;68.58;94789.19;5035384;28;20041;-87
2022/08/22 00:12:41;;;;;;;10.85;7.53;;;;;;;20.71;68.72;94784.19;5041424;28;20075;-86
2022/08/22 00:15:22;;;;;;;9.80;7.22;;;;;;;20.71;68.82;94776.00;5030288;28;20448;-87
2022/08/22 00:17:57;;;;;;;10.10;6.72;;;;;;;20.75;68.74;94782.59;5027599;28;20061;-87
2022/08/22 00:20:40;;;;;;;10.10;7.20;;;;;;;20.78;69.07;94782.06;5012834;28;20025;-88
2022/08/22 00:23:14;;;;;;;9.73;7.28;;;;;;;20.74;69.14;94775.50;5028584;28;20039;-87
2022/08/22 00:26:05;;;;;;;10.77;7.50;;;;;;;20.65;69.18;94777.84;5027923;28;20115;-87
2022/08/22 00:28:59;;;;;;;10.93;8.05;;;;;;;20.65;68.93;94793.41;5027182;28;20103;-88
2022/08/22 00:31:27;;;;;;;9.40;7.13;;;;;;;20.55;68.99;94786.75;5028612;28;20045;-88
2022/08/22 00:34:05;;;;;;;11.05;8.00;;;;;;;20.37;69.52;94769.69;5028433;28;20341;-87
2022/08/22 00:36:51;;;;;;;11.52;8.25;;;;;;;20.35;69.73;94769.13;5026608;28;20022;-87
2022/08/22 00:39:43;;;;;;;10.20;8.00;;;;;;;20.20;70.17;94769.75;5027487;28;20404;-87
2022/08/22 00:42:21;;;;;;;12.55;8.50;;;;;;;20.36;69.78;94773.47;5011917;28;20045;-87
2022/08/22 00:45:01;;;;;;;10.95;8.70;;;;;;;20.42;69.70;94776.25;5027954;28;20112;-87
2022/08/22 00:47:36;;;;;;;11.68;8.68;;;;;;;20.42;69.20;94776.25;5028958;28;20425;-87
2022/08/22 00:50:43;;;;;;;10.95;8.05;;;;;;;20.35;69.27;94780.00;5028195;28;20033;-87
2022/08/22 00:53:25;;;;;;;11.40;8.45;;;;;;;20.21;70.13;94781.47;5035300;28;20502;-86
2022/08/22 00:56:27;;;;;;;13.05;9.63;;;;;;;20.23;70.45;94776.63;5027437;28;20037;-87
2022/08/22 00:59:11;;;;;;;14.60;9.27;;;;;;;20.24;69.85;94775.53;5028847;28;20044;-87
2022/08/22 01:01:39;;;;;;;16.00;9.30;;;;;;;20.18;70.30;94768.38;5029017;28;20025;-87
2022/08/22 01:04:37;;;;;;;12.35;8.75;;;;;;;20.16;70.19;94759.63;5027327;28;20459;-89
2022/08/22 01:07:08;;;;;;;11.80;8.00;;;;;;;20.12;70.09;94765.59;5026956;28;20022;-87
2022/08/22 01:10:00;;;;;;;11.55;9.45;;;;;;;20.12;70.09;94754.69;5029799;28;20026;-87
2022/08/22 01:12:40;;;;;;;11.68;9.27;;;;;;;20.06;70.16;94766.59;5027479;28;20037;-86
2022/08/22 01:15:10;;;;;;;12.32;9.68;;;;;;;20.07;70.28;94770.16;5011584;28;20068;-87
2022/08/22 01:17:57;;;;;;;13.75;9.40;;;;;;;20.00;70.52;94773.88;5027519;28;20028;-87
2022/08/22 01:20:58;;;;;;;12.32;9.40;;;;;;;20.07;70.13;94770.97;5028023;28;20041;-87
2022/08/22 01:23:51;;;;;;;11.60;8.85;;;;;;;20.00;70.42;94767.59;5026743;28;20025;-87
2022/08/22 01:26:22;;;;;;;18.05;9.70;;;;;;;19.88;70.72;94771.25;5028380;28;20037;-87
2022/08/22 01:29:16;;;;;;;14.80;9.20;;;;;;;20.04;70.39;94768.75;5029705;28;20140;-87
2022/08/22 01:32:08;;;;;;;13.30;9.35;;;;;;;20.00;70.39;94773.03;5029333;28;20025;-87
2022/08/22 01:34:52;;;;;;;15.48;9.93;;;;;;;19.83;70.98;94773.91;5027234;28;20029;-87
2022/08/22 01:37:36;;;;;;;12.02;9.25;;;;;;;19.78;71.20;94776.56;5027736;28;20061;-87
2022/08/22 01:40:13;;;;;;;11.65;9.68;;;;;;;19.85;71.04;94771.78;5028092;28;20500;-87
2022/08/22 01:42:56;;;;;;;13.45;9.52;;;;;;;19.90;70.89;94779.16;5028172;28;20029;-87
2022/08/22 01:45:54;;;;;;;13.80;9.43;;;;;;;19.89;70.84;94778.34;5027600;28;20033;-87
2022/08/22 01:48:37;;;;;;;15.77;10.20;;;;;;;19.79;71.24;94788.28;5033832;28;20061;-88
2022/08/22 01:51:15;;;;;;;13.30;9.90;;;;;;;19.81;70.93;94780.69;5027919;28;20033;-87
2022/08/22 01:53:47;;;;;;;12.68;9.48;;;;;;;19.87;70.54;94785.94;5026359;28;20547;-87
2022/08/22 01:56:16;;;;;;;12.52;9.98;;;;;;;19.96;70.62;94780.03;5010095;28;20399;-87
2022/08/22 01:58:56;;;;;;;13.10;9.52;;;;;;;20.00;70.13;94775.75;5027090;28;20033;-87
2022/08/22 02:02:02;;;;;;;13.13;9.77;;;;;;;20.08;70.06;94778.06;5026391;28;20048;-87
2022/08/22 02:04:39;;;;;;;13.30;8.75;;;;;;;20.19;69.62;94772.75;5027628;28;20033;-87
2022/08/22 02:07:05;;;;;;;13.52;9.73;;;;;;;20.23;69.60;94782.06;5026798;28;20488;-88
2022/08/22 02:09:37;;;;;;;13.20;9.65;;;;;;;20.26;69.69;94776.91;5027510;28;20040;-87
2022/08/22 02:12:21;;;;;;;12.23;9.35;;;;;;;20.31;69.31;94778.06;5027224;28;20025;-87
2022/08/22 02:15:14;;;;;;;14.05;9.38;;;;;;;20.26;69.07;94773.38;5027868;28;20052;-87
2022/08/22 02:17:51;;;;;;;14.82;10.07;;;;;;;20.32;68.82;94775.06;5026802;28;20033;-87
2022/08/22 02:20:19;;;;;;;13.13;9.70;;;;;;;20.36;68.92;94773.47;5026445;28;20037;-87
2022/08/22 02:23:23;;;;;;;12.10;9.75;;;;;;;20.35;68.73;94777.28;5027340;28;20400;-88
2022/08/22 02:25:52;;;;;;;13.00;9.27;;;;;;;20.33;68.71;94781.34;5026638;28;20036;-87
2022/08/22 02:28:37;;;;;;;14.48;9.88;;;;;;;20.34;68.75;94778.38;5026858;28;20061;-87
2022/08/22 02:31:13;;;;;;;15.13;9.93;;;;;;;20.37;69.02;94771.59;5026999;28;20514;-88
2022/08/22 02:33:46;;;;;;;12.45;9.13;;;;;;;20.37;68.85;94777.88;5025589;28;20104;-87
2022/08/22 02:36:23;;;;;;;13.95;9.75;;;;;;;20.34;68.88;94767.50;5025722;28;20108;-87
2022/08/22 02:39:26;;;;;;;14.65;10.32;;;;;;;20.30;68.65;94769.06;5026363;28;20033;-87
2022/08/22 02:41:56;;;;;;;14.37;9.67;;;;;;;20.32;68.62;94766.91;5026631;28;20025;-86
2022/08/22 02:44:47;;;;;;;12.98;9.48;;;;;;;20.17;68.83;94769.47;5025413;28;20403;-87
2022/08/22 02:48:02;;;;;;;16.30;10.38;;;;;;;20.09;69.06;94768.00;5011305;28;20408;-87
2022/08/22 02:51:00;;;;;;;16.35;12.10;;;;;;;20.01;69.52;94778.22;5009830;28;20163;-89
2022/08/22 02:53:51;;;;;;;16.50;11.82;;;;;;;19.97;69.50;94781.72;5026241;28;20420;-87
2022/08/22 02:56:31;;;;;;;15.65;10.85;;;;;;;19.96;69.39;94788.22;5025126;28;20049;-87
2022/08/22 02:59:13;;;;;;;16.83;11.50;;;;;;;19.84;69.74;94791.06;5025183;28;20036;-88
2022/08/22 03:01:44;;;;;;;16.83;10.73;;;;;;;19.79;69.83;94783.66;5026265;28;20029;-87
2022/08/22 03:04:31;;;;;;;14.20;10.60;;;;;;;19.89;69.64;94788.41;5026141;28;20152;-87
2022/08/22 03:07:16;;;;;;;15.98;10.20;;;;;;;19.89;69.45;94778.34;5027060;28;20041;-88
2022/08/22 03:09:56;;;;;;;12.80;9.88;;;;;;;19.95;69.28;94786.56;5025520;28;20500;-87
2022/08/22 03:12:30;;;;;;;14.68;9.68;;;;;;;20.01;69.05;94785.56;5025179;28;20527;-87
2022/08/22 03:15:08;;;;;;;15.00;10.95;;;;;;;19.99;68.90;94785.00;5029461;28;20026;-87
2022/08/22 03:17:44;;;;;;;11.45;9.57;;;;;;;20.03;68.71;94788.88;5026384;28;20037;-89
2022/08/22 03:20:13;;;;;;;14.68;10.00;;;;;;;20.00;68.36;94789.38;5010224;28;20024;-88
2022/08/22 03:22:55;;;;;;;14.73;10.23;;;;;;;19.96;68.32;94788.22;5024905;28;20030;-88
2022/08/22 03:25:28;;;;;;;15.30;10.53;;;;;;;19.85;69.03;94789.97;5025096;28;20195;-87
2022/08/22 03:27:58;;;;;;;17.02;10.70;;;;;;;19.88;68.76;94794.91;5025038;28;20296;-88
2022/08/22 03:30:36;;;;;;;17.13;11.27;;;;;;;19.80;68.79;94793.47;5026479;28;20060;-87
2022/08/22 03:33:23;;;;;;;15.25;10.77;;;;;;;19.68;69.21;94790.03;5025613;28;20033;-88
2022/08/22 03:35:48;;;;;;;18.98;11.75;;;;;;;19.72;69.16;94788.44;5026076;28;20079;-89
2022/08/22 03:38:24;;;;;;;18.95;11.35;;;;;;;19.71;69.29;94793.09;5026207;28;20033;-88
2022/08/22 03:41:22;;;;;;;16.40;11.30;;;;;;;19.48;69.98;94785.94;5026317;28;20162;-88
2022/08/22 03:44:06;;;;;;;16.40;11.43;;;;;;;19.48;70.36;94791.38;5023894;28;20115;-88
2022/08/22 03:47:05;;;;;;;16.88;11.38;;;;;;;19.54;70.12;94795.81;5026705;28;20029;-88
2022/08/22 03:49:45;;;;;;;16.70;11.73;;;;;;;19.51;70.16;94793.59;5027970;28;20331;-88
2022/08/22 03:52:32;;;;;;;16.30;11.00;;;;;;;19.47;70.37;94790.56;5025437;28;20727;-87
2022/08/22 03:56:01;;;;;;;14.70;10.75;;;;;;;19.55;70.26;94783.06;5026156;28;20435;-88
2022/08/22 03:58:48;;;;;;;17.67;11.07;;;;;;;19.50;70.58;94786.53;5005910;28;20037;-87
2022/08/22 04:01:25;;;;;;;15.77;10.50;;;;;;;19.56;69.81;94787.41;5028995;28;20037;-87
2022/08/22 04:04:09;;;;;;;20.02;11.65;;;;;;;19.55;70.30;94785.78;5009463;28;20183;-87
2022/08/22 04:07:14;;;;;;;16.83;10.35;;;;;;;19.51;70.54;94782.72;5029248;28;20046;-86
2022/08/22 04:10:06;;;;;;;13.52;10.57;;;;;;;19.52;70.39;94792.53;5033022;28;20030;-87
2022/08/22 04:13:08;;;;;;;15.32;11.00;;;;;;;19.42;70.76;94789.66;5036934;28;20511;-88
2022/08/22 04:16:09;;;;;;;17.73;10.70;;;;;;;19.44;70.96;94788.31;5031504;28;20036;-88
2022/08/22 04:18:56;;;;;;;16.52;10.40;;;;;;;19.55;70.61;94792.03;5037559;28;20121;-88
2022/08/22 04:21:48;;;;;;;17.75;11.00;;;;;;;19.65;70.30;94788.66;5033135;28;20079;-87
2022/08/22 04:24:24;;;;;;;14.75;10.50;;;;;;;19.62;70.27;94791.84;5038025;28;20033;-87
2022/08/22 04:27:04;;;;;;;17.15;9.98;;;;;;;19.68;70.25;94790.03;5027544;28;20050;-87
2022/08/22 04:29:34;;;;;;;15.63;10.60;;;;;;;19.75;70.07;94798.81;5012654;28;20049;-86
2022/08/22 04:32:05;;;;;;;13.65;10.75;;;;;;;19.73;70.27;94801.00;5027234;28;20021;-86
2022/08/22 04:34:41;;;;;;;17.33;11.27;;;;;;;19.55;71.10;94797.47;5033843;28;20029;-87
2022/08/22 04:37:20;;;;;;;21.50;11.05;;;;;;;19.58;70.87;94794.25;5017669;28;20037;-86
2022/08/22 04:39:58;;;;;;;16.77;10.40;;;;;;;19.69;70.71;94799.81;5027774;28;20018;-86
2022/08/22 04:42:45;;;;;;;17.95;11.43;;;;;;;19.67;70.69;94797.38;5020465;28;20029;-86
2022/08/22 04:45:21;;;;;;;15.32;10.50;;;;;;;19.82;70.46;94794.03;5039960;28;20053;-86
2022/08/22 04:48:11;;;;;;;16.40;10.75;;;;;;;19.96;69.98;94799.09;5036880;28;20160;-87
2022/08/22 04:51:24;;;;;;;16.98;10.75;;;;;;;20.18;69.85;94801.03;5032272;28;20029;-87
2022/08/22 04:54:27;;;;;;;15.65;10.80;;;;;;;20.24;69.83;94795.41;5032110;28;20121;-86
2022/08/22 04:57:32;;;;;;;15.90;10.05;;;;;;;20.45;69.88;94803.81;5030622;28;20037;-86
2022/08/22 05:00:06;;;;;;;15.02;10.45;;;;;;;20.56;69.28;94802.03;5029218;28;20543;-85
2022/08/22 05:02:31;;;;;;;19.15;10.48;;;;;;;20.71;68.83;94806.81;5029498;28;20030;-85
2022/08/22 05:05:11;;;;;;;14.23;9.95;;;;;;;20.74;68.38;94810.91;5028065;28;20401;-85
2022/08/22 05:07:43;;;;;;;14.25;9.80;;;;;;;20.74;68.40;94813.66;5027127;28;20068;-85
2022/08/22 05:10:17;;;;;;;14.88;9.95;;;;;;;20.80;67.90;94819.94;5026471;28;20072;-86
2022/08/22 05:12:49;;;;;;;14.95;10.68;;;;;;;20.79;67.86;94826.50;5026969;28;20109;-86
2022/08/22 05:15:21;;;;;;;21.45;12.25;;;;;;;20.82;67.74;94825.97;5027438;28;20476;-87
2022/08/22 05:17:47;;;;;;;15.75;11.73;;;;;;;20.73;67.95;94828.34;5027297;28;20064;-86
2022/08/22 05:20:14;;;;;;;18.85;11.25;;;;;;;20.66;68.13;94827.72;5010158;28;20033;-87
2022/08/22 05:22:42;;;;;;;17.40;12.50;;;;;;;20.68;68.52;94831.03;5027293;28;20370;-86
2022/08/22 05:25:20;;;;;;;21.70;14.27;;;;;;;20.79;67.94;94831.94;5025976;28;20041;-86
2022/08/22 05:27:50;;;;;;;27.08;13.73;;;;;;;20.79;67.85;94827.31;5009231;28;20524;-86
2022/08/22 05:30:21;;;;;;;19.15;13.70;;;;;;;20.78;68.02;94831.09;5010228;28;20112;-87
2022/08/22 05:33:18;;;;;;;21.05;14.13;;;;;;;20.92;67.19;94836.19;5009724;28;20535;-86
2022/08/22 05:35:50;;;;;;;18.40;12.35;;;;;;;21.01;67.61;94834.63;5026381;28;20037;-86
2022/08/22 05:38:18;;;;;;;17.25;12.10;;;;;;;21.14;66.73;94838.84;5025970;28;20036;-85
2022/08/22 05:40:43;;;;;;;19.05;11.75;;;;;;;21.25;65.55;94845.22;5025863;28;20029;-85
2022/08/22 05:43:09;;;;;;;16.85;10.88;;;;;;;21.36;64.77;94841.50;5027173;28;20026;-85
2022/08/22 05:45:35;;;;;;;15.25;11.45;;;;;;;21.36;64.82;94846.94;5025562;28;20175;-85
2022/08/22 05:48:04;;;;;;;14.48;10.43;;;;;;;21.46;65.15;94845.38;5026179;28;20038;-85
2022/08/22 05:50:32;;;;;;;13.07;9.10;;;;;;;21.65;64.88;94842.25;5009430;28;20122;-86
2022/08/22 05:53:05;;;;;;;10.10;6.82;;;;;;;21.86;62.61;94848.69;5028862;28;20052;-86
2022/08/22 05:55:46;;;;;;;8.38;6.13;;;;;;;21.96;62.16;94856.13;5025781;28;20033;-85
2022/08/22 05:58:40;;;;;;;7.28;5.45;;;;;;;21.91;61.01;94869.75;5025101;28;20488;-85
2022/08/22 06:01:30;;;;;;;10.00;6.75;;;;;;;21.93;61.81;94873.84;5027370;28;20417;-85
2022/08/22 06:04:05;;;;;;;10.65;8.02;;;;;;;21.91;62.63;94867.81;5027091;28;20112;-85
2022/08/22 06:06:41;;;;;;;14.70;11.80;;;;;;;21.64;64.45;94871.44;5009054;28;20100;-86
2022/08/22 06:09:37;;;;;;;15.13;11.00;;;;;;;21.72;64.03;94872.84;5025946;28;20037;-85
2022/08/22 06:12:22;;;;;;;13.32;10.73;;;;;;;21.70;63.35;94866.84;5034039;28;20455;-86
2022/08/22 06:15:14;;;;;;;16.13;11.35;;;;;;;21.85;63.08;94866.16;5026310;28;20028;-85
2022/08/22 06:17:48;;;;;;;14.20;9.57;;;;;;;22.06;62.47;94853.47;5010307;28;20025;-85
2022/08/22 06:20:17;;;;;;;15.35;10.32;;;;;;;22.26;62.55;94859.28;5009895;28;20053;-85
2022/08/22 06:22:46;;;;;;;16.50;10.77;;;;;;;22.30;62.38;94865.84;5026436;28;20044;-86
2022/08/22 06:25:20;;;;;;;15.02;10.10;;;;;;;22.42;62.02;94868.38;5025311;28;20026;-86
2022/08/22 06:27:45;;;;;;;15.20;9.95;;;;;;;22.38;60.95;94862.63;5025200;28;20046;-85
2022/08/22 06:30:12;;;;;;;14.55;10.18;;;;;;;22.47;61.66;94863.75;5026905;28;20033;-85
2022/08/22 06:32:40;;;;;;;14.98;11.23;;;;;;;22.23;61.90;94866.91;5026583;28;20139;-87
2022/08/22 06:35:10;;;;;;;12.95;9.60;;;;;;;22.42;61.64;94871.09;5026369;28;20493;-86
2022/08/22 06:37:39;;;;;;;14.02;9.15;;;;;;;22.47;62.00;94873.88;5024905;28;20382;-86
2022/08/22 06:40:06;;;;;;;11.75;9.35;;;;;;;22.55;61.28;94872.53;5009564;28;20094;-87
2022/08/22 06:42:31;;;;;;;10.27;8.15;;;;;;;22.57;60.20;94873.91;5027552;28;20075;-87
2022/08/22 06:45:00;;;;;;;12.43;8.43;;;;;;;22.64;60.83;94870.13;5011504;28;20064;-86
2022/08/22 06:47:29;;;;;;;11.35;7.90;;;;;;;22.65;61.67;94869.06;5028496;28;20030;-87
2022/08/22 06:50:00;;;;;;;11.23;7.57;;;;;;;22.70;60.73;94861.69;5026505;28;20040;-86
2022/08/22 06:52:27;;;;;;;10.18;7.43;;;;;;;22.66;59.70;94876.16;5027361;28;20029;-87
2022/08/22 06:55:06;;;;;;;11.50;8.02;;;;;;;22.59;59.80;94870.91;5028473;28;20025;-87
2022/08/22 06:57:32;;;;;;;11.45;7.50;;;;;;;22.59;60.04;94860.81;5025470;28;20018;-86
2022/08/22 06:59:58;;;;;;;9.32;7.10;;;;;;;22.64;59.51;94873.69;5026231;28;20026;-86
2022/08/22 07:02:42;;;;;;;11.25;7.28;;;;;;;22.64;60.09;94876.41;5025157;28;20032;-86
2022/08/22 07:05:23;;;;;;;10.93;7.00;;;;;;;22.71;59.68;94867.97;5025677;28;20025;-85
2022/08/22 07:07:49;;;;;;;10.80;7.00;;;;;;;22.64;59.38;94870.13;5024245;28;20121;-85
2022/08/22 07:10:15;;;;;;;11.05;7.00;;;;;;;22.58;59.90;94875.56;5026675;28;20112;-85
2022/08/22 07:12:47;;;;;;;10.85;7.63;;;;;;;22.62;59.40;94875.06;5024986;28;20026;-85
2022/08/22 07:15:36;;;;;;;9.70;8.02;;;;;;;22.63;59.12;94873.94;5024605;28;20022;-85
2022/08/22 07:18:24;;;;;;;8.52;6.75;;;;;;;22.62;58.87;94880.53;5025986;28;20045;-85
2022/08/22 07:20:55;;;;;;;10.40;7.15;;;;;;;22.68;59.18;94879.44;5025444;28;20404;-86
2022/08/22 07:23:35;;;;;;;9.80;7.50;;;;;;;22.60;59.23;94878.06;5026587;28;20033;-86
2022/08/22 07:26:06;;;;;;;9.75;7.15;;;;;;;22.60;59.42;94888.97;5024786;28;20022;-85
2022/08/22 07:28:52;;;;;;;11.80;7.30;;;;;;;22.58;58.89;94883.75;5025742;28;20081;-86
2022/08/22 07:31:37;;;;;;;11.55;6.72;;;;;;;22.65;59.86;94886.25;5024782;28;20052;-86
2022/08/22 07:34:36;;;;;;;10.13;7.13;;;;;;;22.66;59.95;94879.72;5025726;28;20025;-86
2022/08/22 07:37:05;;;;;;;10.23;7.30;;;;;;;22.73;59.92;94882.19;5010623;28;20034;-86
2022/08/22 07:39:35;;;;;;;10.65;7.47;;;;;;;22.82;57.97;94880.59;5024634;28;20026;-86
2022/08/22 07:42:05;;;;;;;10.30;7.35;;;;;;;22.66;59.19;94881.63;5023947;28;20030;-86
2022/08/22 07:44:41;;;;;;;10.75;8.15;;;;;;;22.62;59.49;94881.31;5026310;28;20075;-84
2022/08/22 07:47:12;;;;;;;9.65;7.55;;;;;;;22.74;58.83;94881.09;5026048;28;20029;-85
2022/08/22 07:49:49;;;;;;;8.70;7.15;;;;;;;22.68;59.28;94879.44;5028926;28;20037;-85
2022/08/22 07:52:14;;;;;;;10.88;7.97;;;;;;;22.58;59.13;94881.03;5028671;28;20033;-85
2022/08/22 07:54:42;;;;;;;15.23;7.78;;;;;;;22.38;60.50;94883.63;5028959;28;20041;-85
2022/08/22 07:57:11;;;;;;;12.45;7.60;;;;;;;22.39;60.18;94880.66;5028200;28;20029;-86
2022/08/22 07:59:43;;;;;;;11.20;7.28;;;;;;;22.40;60.64;94878.75;5027688;28;20120;-85
2022/08/22 08:02:10;;;;;;;10.07;7.05;;;;;;;22.38;60.74;94878.19;5012321;28;20490;-86
2022/08/22 08:04:35;;;;;;;13.25;8.10;;;;;;;22.32;61.09;94875.44;5027920;28;20071;-87
2022/08/22 08:07:01;;;;;;;10.40;7.35;;;;;;;22.38;60.47;94873.53;5011163;28;20026;-85
2022/08/22 08:09:31;;;;;;;10.20;7.45;;;;;;;22.50;60.26;94873.34;5027833;28;20502;-86
2022/08/22 08:11:58;;;;;;;13.60;7.90;;;;;;;22.66;59.68;94876.16;5027423;28;20044;-87
2022/08/22 08:14:24;;;;;;;10.57;7.47;;;;;;;22.68;60.13;94872.03;5012093;28;20049;-86
2022/08/22 08:17:16;;;;;;;9.93;7.75;;;;;;;22.80;59.59;94877.28;5011621;28;20389;-86
2022/08/22 08:19:41;;;;;;;10.52;7.97;;;;;;;22.79;60.26;94869.34;5029213;28;20047;-86
2022/08/22 08:22:07;;;;;;;12.18;7.70;;;;;;;22.89;59.69;94869.38;5011046;28;20112;-87
2022/08/22 08:24:35;;;;;;;10.48;7.20;;;;;;;23.04;58.95;94871.31;5010899;28;20061;-85
2022/08/22 08:30:00;;;;;;;10.57;7.35;;;;;;;23.23;58.82;94859.84;5013295;28;20160;-86
2022/08/22 08:32:31;;;;;;;12.52;7.60;;;;;;;23.36;58.42;94863.97;5027481;28;20040;-85
2022/08/22 08:35:16;;;;;;;10.70;8.20;;;;;;;23.50;57.85;94860.75;5011006;28;20076;-85
2022/08/22 08:38:01;;;;;;;10.10;7.80;;;;;;;23.53;58.32;94866.50;5027212;28;20412;-85
2022/08/22 08:40:34;;;;;;;11.05;8.00;;;;;;;23.45;57.11;94854.19;5027599;28;20037;-85
2022/08/22 08:43:28;;;;;;;12.43;8.02;;;;;;;23.47;56.85;94864.84;5026945;28;20029;-85
2022/08/22 08:46:05;;;;;;;13.15;7.30;;;;;;;23.34;57.68;94853.31;5027173;28;20029;-85
2022/08/22 08:49:08;;;;;;;12.02;7.28;;;;;;;23.36;58.03;94854.97;5028510;28;20030;-85
2022/08/22 08:51:46;;;;;;;11.25;7.85;;;;;;;23.45;57.50;94853.34;5028018;28;20033;-86
2022/08/22 08:54:36;;;;;;;12.52;7.90;;;;;;;23.39;58.32;94854.44;5028271;28;20386;-85
2022/08/22 08:57:24;;;;;;;12.68;7.70;;;;;;;23.42;57.68;94852.00;5027754;28;20489;-86
2022/08/22 09:00:03;;;;;;;10.65;7.82;;;;;;;23.52;57.28;94848.41;5030148;28;20041;-85
2022/08/22 09:02:46;;;;;;;13.00;8.07;;;;;;;23.62;57.86;94849.53;5028225;28;20045;-86
2022/08/22 09:05:30;;;;;;;;;;;;;;;23.76;58.72;94847.03;5028343;28;20381;-86
2022/08/22 09:07:55;;;;;;;12.00;7.82;;;;;;;23.80;57.25;94854.44;5027814;28;19976;-86
2022/08/22 09:10:47;;;;;;;11.18;7.88;;;;;;;23.99;57.29;94848.34;5027768;28;20034;-85
2022/08/22 09:13:42;;;;;;;12.90;7.88;;;;;;;24.28;54.49;94852.44;5025892;28;20033;-85
2022/08/22 09:16:10;;;;;;;8.38;7.28;;;;;;;24.16;54.33;94852.75;5029140;28;20176;-86
2022/08/22 09:19:13;;;;;;;13.75;9.07;;;;;;;24.29;55.27;94849.44;5027954;28;20040;-86
2022/08/22 09:22:24;;;;;;;12.02;7.85;;;;;;;24.26;55.39;94836.25;5026067;28;20037;-86
2022/08/22 09:25:16;;;;;;;11.02;7.05;;;;;;;24.15;54.50;94846.44;5034249;28;20065;-85
2022/08/22 09:27:47;;;;;;;9.00;7.15;;;;;;;24.16;54.17;94839.88;5026025;28;20032;-85
2022/08/22 09:30:18;;;;;;;9.75;7.50;;;;;;;24.00;54.71;94836.31;5009870;28;20558;-85
2022/08/22 09:32:56;;;;;;;10.25;7.72;;;;;;;23.97;55.76;94839.63;5010353;28;20091;-84
2022/08/22 09:35:29;;;;;;;12.77;7.57;;;;;;;24.00;54.76;94835.50;5027088;28;20112;-85
2022/08/22 09:38:01;;;;;;;11.43;8.35;;;;;;;24.06;56.37;94832.47;5009962;28;20411;-85
2022/08/22 09:40:28;;;;;;;11.63;8.18;;;;;;;24.30;54.91;94845.56;5025817;28;20025;-87
2022/08/22 09:43:05;;;;;;;10.32;7.70;;;;;;;24.26;55.18;94844.47;5025649;28;20068;-86
2022/08/22 09:45:44;;;;;;;9.23;7.78;;;;;;;24.29;53.90;94843.94;5009622;28;20120;-86
2022/08/22 09:48:35;;;;;;;12.55;7.82;;;;;;;24.46;53.79;94836.50;5026930;28;20393;-86
2022/08/22 09:51:14;;;;;;;14.52;8.75;;;;;;;24.56;54.65;94831.78;5028338;28;20041;-87
2022/08/22 09:54:01;;;;;;;9.57;7.82;;;;;;;24.68;55.21;94833.38;5025796;28;20060;-86
2022/08/22 09:56:26;;;;;;;10.93;8.13;;;;;;;24.75;53.36;94828.38;5010162;28;20033;-86
2022/08/22 09:58:54;;;;;;;10.50;7.10;;;;;;;24.75;52.34;94822.91;5027239;28;20404;-85
2022/08/22 10:01:34;;;;;;;10.82;7.80;;;;;;;24.73;52.28;94827.84;5026414;28;20038;-86
2022/08/22 10:04:24;;;;;;;12.48;7.75;;;;;;;24.63;52.73;94822.41;5025613;28;20034;-85
2022/08/22 10:07:27;;;;;;;8.85;7.82;;;;;;;24.68;52.83;94823.19;5026846;28;20041;-86
2022/08/22 10:10:11;;;;;;;11.60;7.68;;;;;;;24.69;52.92;94813.06;5026034;28;20080;-86
2022/08/22 10:12:46;;;;;;;10.02;7.53;;;;;;;24.93;53.75;94809.66;5026445;28;20026;-86
2022/08/22 10:15:22;;;;;;;11.00;7.45;;;;;;;25.12;51.47;94808.97;5025621;28;20036;-86
2022/08/22 10:18:26;;;;;;;9.07;7.63;;;;;;;25.13;51.29;94800.50;5024650;28;20036;-86
2022/08/22 10:20:59;;;;;;;15.00;7.72;;;;;;;25.10;52.74;94792.81;5029235;28;20048;-86
2022/08/22 10:23:33;;;;;;;11.32;7.85;;;;;;;25.09;51.46;94787.59;5026332;28;20040;-86
2022/08/22 10:26:33;;;;;;;9.98;7.50;;;;;;;24.97;52.45;94788.81;5026029;28;20069;-85
2022/08/22 10:29:17;;;;;;;15.25;7.88;;;;;;;25.14;53.03;94790.31;5024913;28;20053;-86
2022/08/22 10:31:51;;;;;;;10.35;7.68;;;;;;;25.17;53.15;94789.75;5026712;28;20121;-86
2022/08/22 10:34:39;;;;;;;9.77;7.43;;;;;;;25.43;52.06;94787.63;5009406;28;20084;-86
2022/08/22 10:37:10;;;;;;;9.38;7.70;;;;;;;25.40;51.34;94781.88;5009186;28;20029;-86
2022/08/22 10:39:51;;;;;;;11.95;7.30;;;;;;;25.50;52.47;94780.97;5026141;28;20029;-85
2022/08/22 10:42:49;;;;;;;9.55;6.90;;;;;;;25.59;51.53;94781.97;5025111;28;20033;-86
2022/08/22 10:45:38;;;;;;;11.73;7.63;;;;;;;25.57;51.77;94773.19;5025057;28;20036;-86
2022/08/22 10:48:03;;;;;;;10.35;6.95;;;;;;;25.46;51.90;94763.41;5008610;28;20057;-85
2022/08/22 10:50:47;;;;;;;15.68;7.35;;;;;;;25.33;51.73;94759.44;5026163;28;20087;-85
2022/08/22 10:53:32;;;;;;;13.23;7.43;;;;;;;25.56;51.70;94766.09;5009671;28;20022;-86
2022/08/22 10:56:13;;;;;;;10.40;7.38;;;;;;;25.94;50.92;94759.16;5025757;28;20029;-86
2022/08/22 10:59:13;;;;;;;12.77;7.53;;;;;;;25.69;49.34;94761.88;5024609;28;20037;-86
2022/08/22 11:01:43;;;;;;;11.32;7.57;;;;;;;25.90;50.30;94756.16;5040284;28;20045;-87
2022/08/22 11:04:11;;;;;;;11.90;7.15;;;;;;;25.94;50.34;94756.41;5008863;28;20076;-87
2022/08/22 11:06:51;;;;;;;8.60;6.78;;;;;;;26.09;50.73;94752.63;5025762;28;20055;-86
2022/08/22 11:09:24;;;;;;;11.32;7.18;;;;;;;26.17;50.12;94749.25;5024259;28;20025;-86
2022/08/22 11:11:57;;;;;;;9.10;7.10;;;;;;;26.16;49.70;94747.63;5024490;28;20088;-83
2022/08/22 11:14:50;;;;;;;15.00;7.05;;;;;;;26.21;49.31;94746.72;5024805;28;20029;-93
2022/08/22 11:17:51;;;;;;;8.77;7.10;;;;;;;26.57;49.58;94748.22;5025856;28;20061;-83
2022/08/22 11:20:35;;;;;;;11.45;7.18;;;;;;;26.44;47.89;94739.56;5031498;28;20562;-84
2022/08/22 11:23:12;;;;;;;10.88;6.63;;;;;;;26.65;47.22;94742.88;5012313;28;20083;-82
2022/08/22 11:25:55;;;;;;;10.05;6.90;;;;;;;26.11;46.61;94740.25;5030052;28;20036;-88
2022/08/22 11:28:28;;;;;;;13.38;7.25;;;;;;;26.60;46.42;94740.19;5029407;28;20504;-81
2022/08/22 11:31:15;;;;;;;9.75;7.00;;;;;;;26.78;46.14;94741.31;5027667;28;20538;-83
2022/08/22 11:33:57;;;;;;;9.07;6.55;;;;;;;26.82;45.72;94736.03;5030078;28;20034;-82
2022/08/22 11:36:26;;;;;;;8.50;6.60;;;;;;;26.79;47.71;94728.38;5028425;28;20114;-83
2022/08/22 11:38:58;;;;;;;8.90;6.78;;;;;;;27.01;46.26;94737.97;5011849;28;20074;-82
2022/08/22 11:41:27;;;;;;;10.60;7.57;;;;;;;26.88;46.02;94731.25;5029583;28;20079;-82
2022/08/22 11:44:07;;;;;;;11.00;7.28;;;;;;;26.60;47.50;94736.63;5027456;28;20279;-83
2022/08/22 11:46:34;;;;;;;9.25;7.10;;;;;;;26.40;46.49;94741.28;5029243;28;20503;-83
2022/08/22 11:49:18;;;;;;;10.63;6.97;;;;;;;26.40;47.65;94733.88;5027601;28;20033;-83
2022/08/22 11:52:05;;;;;;;11.63;7.18;;;;;;;26.69;46.80;94726.59;5029490;28;20033;-83
2022/08/22 11:55:06;;;;;;;10.38;6.88;;;;;;;26.73;48.04;94730.38;5029176;28;20021;-83
2022/08/22 11:58:19;;;;;;;10.93;6.55;;;;;;;26.91;45.99;94725.16;5029276;28;20049;-84
2022/08/22 12:00:54;;;;;;;10.02;6.22;;;;;;;26.65;44.33;94714.53;5042087;28;20131;-83
2022/08/22 12:03:26;;;;;;;8.77;6.50;;;;;;;26.61;43.84;94714.34;5027695;28;20558;-82
2022/08/22 12:05:56;;;;;;;8.38;6.15;;;;;;;26.48;44.83;94715.91;5011164;28;20510;-81
2022/08/22 12:08:28;;;;;;;13.52;7.10;;;;;;;26.41;45.64;94710.75;5027650;28;20041;-82
2022/08/22 12:11:07;;;;;;;17.98;6.82;;;;;;;26.50;45.45;94716.41;5028809;28;20030;-84
2022/08/22 12:13:40;;;;;;;9.43;6.93;;;;;;;26.59;45.51;94715.72;5027571;28;20487;-83
2022/08/22 12:16:41;;;;;;;9.75;6.68;;;;;;;26.68;45.95;94715.91;5011198;28;20025;-83
2022/08/22 12:19:45;;;;;;;7.38;6.25;;;;;;;26.67;44.67;94712.31;5028526;28;20586;-83
2022/08/22 12:22:36;;;;;;;14.32;6.68;;;;;;;26.62;46.10;94712.38;5027306;28;20030;-83
2022/08/22 12:25:46;;;;;;;8.77;6.18;;;;;;;26.53;46.66;94704.00;5031483;28;20059;-85
2022/08/22 12:28:30;;;;;;;8.93;6.68;;;;;;;26.31;47.65;94697.13;5038749;28;20492;-85